createdAt,value
2024-05-09T00:00:35.240Z,99763.94
2024-05-09T00:03:07.406Z,99761.50
2024-05-09T00:05:34.549Z,99758.22
2024-05-09T00:08:01.465Z,99761.50
2024-05-09T00:10:35.555Z,99753.94
2024-05-09T00:13:05.235Z,99759.22
2024-05-09T00:15:33.354Z,99759.44
2024-05-09T00:18:00.364Z,99745.38
2024-05-09T00:20:35.282Z,99752.50
2024-05-09T00:23:06.920Z,99761.03
2024-05-09T00:25:33.871Z,99750.06
2024-05-09T00:28:00.522Z,99758.56
2024-05-09T00:30:33.609Z,99758.97
2024-05-09T00:33:03.208Z,99756.69
2024-05-09T00:35:30.386Z,99760.78
2024-05-09T00:37:57.151Z,99760.78
2024-05-09T00:40:34.790Z,99741.84
2024-05-09T00:43:05.957Z,99755.47
2024-05-09T00:45:36.652Z,99752.41
2024-05-09T00:48:08.033Z,99752.97
2024-05-09T00:50:39.858Z,99748.28
2024-05-09T00:53:09.920Z,99745.00
2024-05-09T00:55:38.968Z,99755.56
2024-05-09T00:58:07.718Z,99738.69
2024-05-09T01:00:39.256Z,99742.72
2024-05-09T01:03:13.046Z,99740.50
2024-05-09T01:05:41.462Z,99744.13
2024-05-09T01:08:09.964Z,99738.03
2024-05-09T01:10:37.895Z,99741.25
2024-05-09T01:13:05.622Z,99736.31
2024-05-09T01:15:33.271Z,99747.47
2024-05-09T01:18:26.740Z,99757.03
2024-05-09T01:20:53.370Z,99750.13
2024-05-09T01:23:19.974Z,99754.81
2024-05-09T01:25:47.089Z,99753.31
2024-05-09T01:28:15.036Z,99746.63
2024-05-09T01:30:41.744Z,99750.50
2024-05-09T01:33:10.375Z,99749.63
2024-05-09T01:35:40.827Z,99743.31
2024-05-09T01:38:08.432Z,99739.94
2024-05-09T01:40:38.733Z,99738.09
2024-05-09T01:43:10.756Z,99738.47
2024-05-09T01:45:38.861Z,99731.28
2024-05-09T01:48:05.987Z,99733.28
2024-05-09T01:50:38.967Z,99739.63
2024-05-09T01:53:10.180Z,99736.97
2024-05-09T01:55:37.144Z,99734.94
2024-05-09T01:58:03.828Z,99733.94
2024-05-09T02:00:38.674Z,99728.16
2024-05-09T02:03:10.515Z,99735.66
2024-05-09T02:05:38.587Z,99731.56
2024-05-09T02:08:06.428Z,99732.09
2024-05-09T02:10:33.606Z,99748.75
2024-05-09T02:13:00.579Z,99752.81
2024-05-09T02:15:27.176Z,99744.84
2024-05-09T02:17:54.145Z,99749.94
2024-05-09T02:20:30.187Z,99749.50
2024-05-09T02:23:04.597Z,99741.38
2024-05-09T02:25:32.142Z,99741.34
2024-05-09T02:27:58.882Z,99738.06
2024-05-09T02:30:35.640Z,99736.38
2024-05-09T02:33:06.822Z,99744.56
2024-05-09T02:35:33.712Z,99741.28
2024-05-09T02:38:00.451Z,99747.75
2024-05-09T02:40:35.583Z,99744.66
2024-05-09T02:43:05.558Z,99744.41
2024-05-09T02:45:32.388Z,99743.28
2024-05-09T02:47:59.300Z,99743.66
2024-05-09T02:50:33.970Z,99741.59
2024-05-09T02:53:05.610Z,99739.72
2024-05-09T02:55:32.566Z,99740.50
2024-05-09T02:57:59.240Z,99744.53
2024-05-09T03:00:34.659Z,99743.91
2024-05-09T03:03:08.546Z,99749.13
2024-05-09T03:05:36.375Z,99749.75
2024-05-09T03:08:03.424Z,99747.28
2024-05-09T03:10:35.610Z,99759.88
2024-05-09T03:13:14.389Z,99750.75
2024-05-09T03:15:42.567Z,99759.16
2024-05-09T03:18:09.683Z,99754.16
2024-05-09T03:20:37.276Z,99759.19
2024-05-09T03:23:05.696Z,99762.56
2024-05-09T03:25:33.209Z,99758.28
2024-05-09T03:28:00.035Z,99758.28
2024-05-09T03:30:38.740Z,99757.66
2024-05-09T03:33:18.029Z,99755.28
2024-05-09T03:35:46.664Z,99748.31
2024-05-09T03:38:13.760Z,99759.19
2024-05-09T03:40:48.526Z,99754.50
2024-05-09T03:43:16.287Z,99756.31
2024-05-09T03:45:43.490Z,99756.22
2024-05-09T03:48:10.577Z,99758.47
2024-05-09T03:50:37.779Z,99761.13
2024-05-09T03:53:05.100Z,99750.44
2024-05-09T03:55:31.925Z,99748.41
2024-05-09T03:57:58.790Z,99758.13
2024-05-09T04:00:31.687Z,99762.28
2024-05-09T04:03:06.274Z,99760.94
2024-05-09T04:05:34.986Z,99759.94
2024-05-09T04:08:02.105Z,99764.59
2024-05-09T04:10:33.454Z,99749.78
2024-05-09T04:13:01.876Z,99764.13
2024-05-09T04:15:28.542Z,99760.53
2024-05-09T04:17:55.353Z,99768.72
2024-05-09T04:20:33.021Z,99768.44
2024-05-09T04:23:06.040Z,99768.38
2024-05-09T04:25:32.730Z,99765.41
2024-05-09T04:27:59.358Z,99770.19
2024-05-09T04:30:34.781Z,99756.63
2024-05-09T04:33:07.077Z,99767.06
2024-05-09T04:35:35.327Z,99755.97
2024-05-09T04:38:02.118Z,99759.09
2024-05-09T04:40:33.924Z,99759.97
2024-05-09T04:43:03.738Z,99757.31
2024-05-09T04:45:30.592Z,99762.50
2024-05-09T04:47:57.523Z,99759.84
2024-05-09T04:50:33.580Z,99768.50
2024-05-09T04:53:05.097Z,99768.03
2024-05-09T04:55:32.587Z,99763.72
2024-05-09T04:57:59.169Z,99765.09
2024-05-09T05:00:32.594Z,99767.38
2024-05-09T05:03:10.165Z,99740.81
2024-05-09T05:05:43.741Z,99770.53
2024-05-09T05:08:20.357Z,99736.84
2024-05-09T05:10:48.547Z,99771.94
2024-05-09T05:13:18.136Z,99771.53
2024-05-09T05:15:46.700Z,99773.94
2024-05-09T05:18:15.117Z,99768.84
2024-05-09T05:20:42.700Z,99763.81
2024-05-09T05:23:14.503Z,99755.06
2024-05-09T05:25:41.887Z,99762.44
2024-05-09T05:28:09.390Z,99770.94
2024-05-09T05:30:38.003Z,99779.44
2024-05-09T05:33:06.693Z,99765.94
2024-05-09T05:35:34.563Z,99765.88
2024-05-09T05:38:01.879Z,99772.41
2024-05-09T05:40:36.223Z,99766.94
2024-05-09T05:43:09.357Z,99769.03
2024-05-09T05:45:36.819Z,99738.22
2024-05-09T05:48:05.922Z,99741.06
2024-05-09T05:50:36.542Z,99779.03
2024-05-09T05:53:15.721Z,99774.22
2024-05-09T05:55:42.877Z,99751.53
2024-05-09T05:58:10.770Z,99779.50
2024-05-09T06:00:39.793Z,99786.00
2024-05-09T06:03:08.736Z,99773.00
2024-05-09T06:05:40.368Z,99786.00
2024-05-09T06:08:07.942Z,99773.41
2024-05-09T06:10:38.942Z,99778.06
2024-05-09T06:13:08.861Z,99753.16
2024-05-09T06:15:35.719Z,99782.41
2024-05-09T06:18:06.220Z,99769.97
2024-05-09T06:20:36.533Z,99781.19
2024-05-09T06:23:09.152Z,99773.84
2024-05-09T06:25:36.597Z,99778.66
2024-05-09T06:28:03.991Z,99783.22
2024-05-09T06:30:40.105Z,99779.84
2024-05-09T06:33:11.160Z,99772.00
2024-05-09T06:35:39.917Z,99776.91
2024-05-09T06:38:09.581Z,99784.09
2024-05-09T06:40:39.986Z,99784.09
2024-05-09T06:43:12.954Z,99780.78
2024-05-09T06:45:40.346Z,99780.31
2024-05-09T06:48:09.132Z,99759.16
2024-05-09T06:50:38.301Z,99765.59
2024-05-09T06:53:07.159Z,99772.16
2024-05-09T06:55:33.997Z,99776.09
2024-05-09T06:58:00.955Z,99778.00
2024-05-09T07:00:35.349Z,99776.75
2024-05-09T07:03:16.488Z,99742.56
2024-05-09T07:05:46.633Z,99763.97
2024-05-09T07:08:14.612Z,99781.84
2024-05-09T07:10:41.645Z,99772.00
2024-05-09T07:13:11.424Z,99766.66
2024-05-09T07:15:38.766Z,99752.72
2024-05-09T07:18:17.785Z,99746.09
2024-05-09T07:20:46.338Z,99771.22
2024-05-09T07:23:13.340Z,99770.78
2024-05-09T07:25:41.108Z,99760.34
2024-05-09T07:28:18.552Z,99749.97
2024-05-09T07:30:45.830Z,99764.44
2024-05-09T07:33:18.006Z,99746.94
2024-05-09T07:35:45.190Z,99743.28
2024-05-09T07:38:11.945Z,99738.13
2024-05-09T07:40:39.455Z,99755.97
2024-05-09T07:43:08.341Z,99736.47
2024-05-09T07:52:32.563Z,99739.34
2024-05-09T07:55:53.918Z,99716.66
2024-05-09T07:58:22.438Z,99737.25
2024-05-09T08:00:49.770Z,99713.25
2024-05-09T08:03:16.542Z,99697.38
2024-05-09T08:05:43.302Z,99698.38
2024-05-09T08:08:11.586Z,99711.78
2024-05-09T08:10:38.270Z,99710.81
2024-05-09T08:13:05.651Z,99695.44
2024-05-09T08:15:32.261Z,99708.97
2024-05-09T08:18:00.176Z,99695.00
2024-05-09T08:20:31.231Z,99701.59
2024-05-09T08:23:01.689Z,99675.88
2024-05-09T08:25:28.438Z,99696.41
2024-05-09T08:27:55.305Z,99706.88
2024-05-09T08:30:29.801Z,99711.19
2024-05-09T08:33:03.652Z,99707.53
2024-05-09T08:35:30.432Z,99707.91
2024-05-09T08:37:57.153Z,99695.88
2024-05-09T08:40:30.894Z,99702.84
2024-05-09T08:43:02.992Z,99693.59
2024-05-09T08:45:30.286Z,99681.59
2024-05-09T08:48:01.390Z,99672.44
2024-05-09T08:50:35.931Z,99656.94
2024-05-09T08:53:05.998Z,99697.41
2024-05-09T08:55:32.852Z,99692.84
2024-05-09T08:58:03.702Z,99659.81
2024-05-09T09:00:36.846Z,99676.81
2024-05-09T09:03:07.372Z,99678.72
2024-05-09T09:05:36.593Z,99677.97
2024-05-09T09:08:06.561Z,99680.78
2024-05-09T09:10:33.645Z,99674.19
2024-05-09T09:13:05.433Z,99683.78
2024-05-09T09:15:32.657Z,99678.16
2024-05-09T09:18:00.870Z,99649.38
2024-05-09T09:20:35.647Z,99675.41
2024-05-09T09:23:04.519Z,99688.91
2024-05-09T09:25:31.699Z,99690.56
2024-05-09T09:27:58.956Z,99651.31
2024-05-09T09:30:36.437Z,99690.84
2024-05-09T09:33:08.848Z,99687.28
2024-05-09T09:35:38.316Z,99640.16
2024-05-09T09:38:06.760Z,99660.81
2024-05-09T09:40:39.097Z,99667.50
2024-05-09T09:43:22.632Z,99629.88
2024-05-09T09:45:51.038Z,99671.84
2024-05-09T09:48:19.984Z,99675.56
2024-05-09T09:50:47.616Z,99673.56
2024-05-09T09:53:14.320Z,99682.22
2024-05-09T09:55:42.039Z,99648.59
2024-05-09T09:58:13.474Z,99661.00
2024-05-09T10:00:41.832Z,99657.75
2024-05-09T10:03:08.832Z,99668.94
2024-05-09T10:05:36.457Z,99669.31
2024-05-09T10:08:06.972Z,99628.97
2024-05-09T10:10:35.736Z,99662.56
2024-05-09T10:13:07.390Z,99677.50
2024-05-09T10:15:48.362Z,99666.13
2024-05-09T10:18:15.609Z,99669.41
2024-05-09T10:20:46.555Z,99662.97
2024-05-09T10:23:27.524Z,99651.84
2024-05-09T10:26:06.694Z,99669.16
2024-05-09T10:28:36.058Z,99636.88
2024-05-09T10:31:13.773Z,99658.28
2024-05-09T10:33:49.573Z,99646.00
2024-05-09T10:36:26.624Z,99639.53
2024-05-09T10:38:55.035Z,99656.69
2024-05-09T10:41:23.763Z,99632.56
2024-05-09T10:43:51.850Z,99659.13
2024-05-09T10:46:19.635Z,99632.03
2024-05-09T10:48:47.720Z,99633.13
2024-05-09T10:51:14.844Z,99638.22
2024-05-09T10:53:42.830Z,99612.06
2024-05-09T10:56:10.151Z,99613.44
2024-05-09T10:58:36.986Z,99634.75
2024-05-09T11:01:06.998Z,99645.75
2024-05-09T11:03:36.577Z,99641.34
2024-05-09T11:06:04.070Z,99632.91
2024-05-09T11:08:32.890Z,99621.38
2024-05-09T11:11:00.505Z,99610.19
2024-05-09T11:13:30.898Z,99623.69
2024-05-09T11:15:59.353Z,99621.97
2024-05-09T11:18:35.340Z,99616.56
2024-05-09T11:21:12.989Z,99609.66
2024-05-09T11:23:40.442Z,99608.28
2024-05-09T11:26:07.231Z,99607.94
2024-05-09T11:28:33.994Z,99606.47
2024-05-09T11:31:09.853Z,99600.63
2024-05-09T11:33:49.619Z,99589.53
2024-05-09T11:36:19.549Z,99592.41
2024-05-09T11:38:46.847Z,99572.94
2024-05-09T11:41:18.055Z,99585.97
2024-05-09T11:43:45.101Z,99560.59
2024-05-09T11:46:12.084Z,99599.41
2024-05-09T11:48:39.746Z,99597.72
2024-05-09T11:51:06.759Z,99605.63
2024-05-09T11:53:33.545Z,99572.84
2024-05-09T11:56:02.899Z,99599.25
2024-05-09T11:58:34.729Z,99575.81
2024-05-09T12:01:12.647Z,99583.09
2024-05-09T12:03:39.507Z,99565.69
2024-05-09T12:06:06.651Z,99547.19
2024-05-09T12:08:33.583Z,99573.03
2024-05-09T12:11:00.551Z,99551.53
2024-05-09T12:13:27.787Z,99583.56
2024-05-09T12:15:54.700Z,99574.69
2024-05-09T12:18:21.486Z,99574.13
2024-05-09T12:20:50.392Z,99550.84
2024-05-09T12:23:17.149Z,99579.97
2024-05-09T12:25:46.119Z,99560.03
2024-05-09T12:28:12.798Z,99535.25
2024-05-09T12:30:42.076Z,99567.13
2024-05-09T12:33:13.247Z,99518.97
2024-05-09T12:35:44.037Z,99553.25
2024-05-09T12:38:13.900Z,99571.25
2024-05-09T12:40:40.662Z,99554.38
2024-05-09T12:43:08.732Z,99516.34
2024-05-09T12:45:36.555Z,99562.75
2024-05-09T12:48:04.615Z,99556.88
2024-05-09T12:50:33.607Z,99534.16
2024-05-09T12:53:03.072Z,99562.91
2024-05-09T12:55:37.237Z,99500.53
2024-05-09T12:58:11.516Z,99547.63
2024-05-09T13:00:38.716Z,99535.63
2024-05-09T13:03:05.976Z,99504.69
2024-05-09T13:05:32.818Z,99535.00
2024-05-09T13:08:03.564Z,99545.44
2024-05-09T13:10:32.775Z,99533.94
2024-05-09T13:13:01.423Z,99545.03
2024-05-09T13:15:30.114Z,99550.72
2024-05-09T13:18:00.275Z,99552.53
2024-05-09T13:20:33.512Z,99540.00
2024-05-09T13:23:03.569Z,99543.88
2024-05-09T13:25:30.258Z,99517.44
2024-05-09T13:27:57.520Z,99521.63
2024-05-09T13:32:56.191Z,99515.91
2024-05-09T13:35:22.953Z,99484.53
2024-05-09T13:37:49.784Z,99511.06
2024-05-09T13:40:26.685Z,99491.31
2024-05-09T13:42:56.853Z,99512.75
2024-05-09T13:45:23.569Z,99513.72
2024-05-09T13:47:50.444Z,99522.47
2024-05-09T13:50:27.762Z,99517.09
2024-05-09T13:53:00.138Z,99504.50
2024-05-09T13:55:26.681Z,99498.81
2024-05-09T13:57:53.551Z,99490.38
2024-05-09T14:00:32.136Z,99472.66
2024-05-09T14:03:06.822Z,99501.44
2024-05-09T14:05:33.620Z,99499.00
2024-05-09T14:08:00.998Z,99477.69
2024-05-09T14:10:31.142Z,99458.84
2024-05-09T14:12:58.881Z,99483.41
2024-05-09T14:15:25.590Z,99445.31
2024-05-09T14:17:52.604Z,99460.06
2024-05-09T14:20:27.950Z,99471.22
2024-05-09T14:22:58.370Z,99450.50
2024-05-09T14:25:26.473Z,99478.91
2024-05-09T14:27:53.539Z,99455.69
2024-05-09T14:30:29.790Z,99454.91
2024-05-09T14:33:01.571Z,99415.44
2024-05-09T14:35:28.200Z,99463.41
2024-05-09T14:37:54.915Z,99426.59
2024-05-09T14:40:31.162Z,99437.25
2024-05-09T14:43:06.454Z,99437.97
2024-05-09T14:45:34.786Z,99442.81
2024-05-09T14:48:02.264Z,99424.78
2024-05-09T14:50:35.481Z,99443.78
2024-05-09T14:53:05.945Z,99448.09
2024-05-09T14:55:35.913Z,99437.41
2024-05-09T14:58:03.559Z,99425.34
2024-05-09T15:00:35.644Z,99410.69
2024-05-09T15:03:03.968Z,99427.69
2024-05-09T15:05:30.824Z,99437.09
2024-05-09T15:07:58.213Z,99434.94
2024-05-09T15:10:33.751Z,99437.13
2024-05-09T15:13:04.521Z,99431.34
2024-05-09T15:15:31.500Z,99427.69
2024-05-09T15:17:58.878Z,99413.75
2024-05-09T15:20:33.102Z,99384.28
2024-05-09T15:23:02.896Z,99401.34
2024-05-09T15:25:29.828Z,99417.09
2024-05-09T15:27:56.842Z,99421.13
2024-05-09T15:30:30.937Z,99402.72
2024-05-09T15:33:00.990Z,99421.66
2024-05-09T15:35:27.958Z,99391.72
2024-05-09T15:37:55.551Z,99406.47
2024-05-09T15:40:31.293Z,99415.69
2024-05-09T15:43:06.239Z,99408.81
2024-05-09T15:45:33.648Z,99380.03
2024-05-09T15:48:00.543Z,99402.09
2024-05-09T15:50:36.037Z,99366.03
2024-05-09T15:53:07.717Z,99373.75
2024-05-09T15:55:35.184Z,99385.06
2024-05-09T15:58:03.223Z,99394.44
2024-05-09T16:00:37.560Z,99389.72
2024-05-09T16:03:08.623Z,99393.13
2024-05-09T16:05:35.535Z,99383.09
2024-05-09T16:08:02.615Z,99400.44
2024-05-09T16:10:33.021Z,99400.16
2024-05-09T16:13:01.741Z,99374.56
2024-05-09T16:15:28.816Z,99387.88
2024-05-09T16:17:56.314Z,99390.91
2024-05-09T16:22:52.636Z,99390.41
2024-05-09T16:25:19.418Z,99377.88
2024-05-09T16:27:46.301Z,99387.53
2024-05-09T16:30:20.994Z,99399.34
2024-05-09T16:32:54.152Z,99391.81
2024-05-09T16:35:20.880Z,99394.16
2024-05-09T16:37:47.884Z,99386.31
2024-05-09T16:40:22.195Z,99381.88
2024-05-09T16:42:56.711Z,99390.44
2024-05-09T16:45:23.409Z,99359.06
2024-05-09T16:47:50.623Z,99392.03
2024-05-09T16:50:25.780Z,99395.88
2024-05-09T16:52:55.756Z,99350.78
2024-05-09T16:55:22.495Z,99382.63
2024-05-09T16:57:49.482Z,99386.56
2024-05-09T17:00:25.237Z,99378.94
2024-05-09T17:02:58.313Z,99383.75
2024-05-09T17:05:25.249Z,99351.53
2024-05-09T17:07:51.987Z,99358.19
2024-05-09T17:10:26.702Z,99344.47
2024-05-09T17:12:58.855Z,99373.00
2024-05-09T17:15:25.863Z,99384.84
2024-05-09T17:17:52.796Z,99374.72
2024-05-09T17:20:29.299Z,99365.75
2024-05-09T17:25:57.133Z,99334.53
2024-05-09T17:28:24.067Z,99344.06
2024-05-09T17:30:51.335Z,99385.22
2024-05-09T17:33:18.722Z,99378.50
2024-05-09T17:35:46.146Z,99379.94
2024-05-09T17:38:14.455Z,99355.38
2024-05-09T17:40:41.372Z,99372.28
2024-05-09T17:43:10.542Z,99342.78
2024-05-09T17:45:39.488Z,99373.88
2024-05-09T17:48:08.260Z,99374.50
2024-05-09T17:50:37.263Z,99368.91
2024-05-09T17:53:08.435Z,99380.44
2024-05-09T17:55:35.897Z,99379.34
2024-05-09T17:58:04.288Z,99374.00
2024-05-09T18:00:37.930Z,99361.94
2024-05-09T18:03:10.907Z,99389.88
2024-05-09T18:05:40.812Z,99357.66
2024-05-09T18:08:08.846Z,99394.41
2024-05-09T18:10:39.293Z,99391.22
2024-05-09T18:13:09.015Z,99377.53
2024-05-09T18:15:36.545Z,99348.78
2024-05-09T18:18:04.335Z,99382.63
2024-05-09T18:20:40.928Z,99368.63
2024-05-09T18:23:11.889Z,99394.72
2024-05-09T18:25:38.758Z,99373.38
2024-05-09T18:28:06.957Z,99359.56
2024-05-09T18:30:36.238Z,99396.25
2024-05-09T18:33:06.434Z,99395.88
2024-05-09T18:35:34.529Z,99408.94
2024-05-09T18:38:06.513Z,99401.03
2024-05-09T18:40:36.445Z,99375.63
2024-05-09T18:43:07.203Z,99375.81
2024-05-09T18:45:36.497Z,99396.19
2024-05-09T18:48:05.842Z,99400.84
2024-05-09T18:50:37.611Z,99387.41
2024-05-09T18:53:07.388Z,99332.41
2024-05-09T18:55:34.197Z,99394.72
2024-05-09T18:58:03.559Z,99405.66
2024-05-09T19:00:35.937Z,99400.81
2024-05-09T19:03:09.732Z,99370.66
2024-05-09T19:05:39.336Z,99404.16
2024-05-09T19:08:10.009Z,99413.72
2024-05-09T19:10:39.343Z,99354.78
2024-05-09T19:13:11.098Z,99373.78
2024-05-09T19:15:43.666Z,99345.03
2024-05-09T19:18:12.888Z,99395.66
2024-05-09T19:20:43.438Z,99368.97
2024-05-09T19:23:12.176Z,99434.16
2024-05-09T19:25:39.461Z,99391.13
2024-05-09T19:28:07.191Z,99401.38
2024-05-09T19:30:39.885Z,99361.63
2024-05-09T19:33:11.135Z,99393.56
2024-05-09T19:35:39.689Z,99436.47
2024-05-09T19:38:07.192Z,99406.34
2024-05-09T19:40:35.154Z,99446.38
2024-05-09T19:43:03.681Z,99440.31
2024-05-09T19:45:32.848Z,99401.84
2024-05-09T19:48:00.525Z,99408.38
2024-05-09T19:50:36.848Z,99441.03
2024-05-09T19:53:09.479Z,99448.94
2024-05-09T19:55:36.327Z,99444.78
2024-05-09T19:58:05.370Z,99440.06
2024-05-09T20:00:36.689Z,99418.91
2024-05-09T20:03:06.121Z,99435.03
2024-05-09T20:05:35.427Z,99415.28
2024-05-09T20:08:02.440Z,99446.34
2024-05-09T20:10:32.719Z,99434.94
2024-05-09T20:13:02.128Z,99453.91
2024-05-09T20:15:29.328Z,99429.97
2024-05-09T20:17:56.388Z,99412.94
2024-05-09T20:20:33.098Z,99448.50
2024-05-09T20:23:06.045Z,99431.31
2024-05-09T20:25:32.838Z,99466.69
2024-05-09T20:27:59.484Z,99459.69
2024-05-09T20:30:31.938Z,99456.63
2024-05-09T20:33:02.944Z,99466.66
2024-05-09T20:35:32.939Z,99437.97
2024-05-09T20:38:01.939Z,99434.13
2024-05-09T20:40:33.882Z,99463.63
2024-05-09T20:43:04.458Z,99467.75
2024-05-09T20:45:31.457Z,99448.91
2024-05-09T20:47:58.394Z,99424.13
2024-05-09T20:50:35.631Z,99462.53
2024-05-09T20:53:14.262Z,99469.31
2024-05-09T20:55:42.396Z,99464.53
2024-05-09T20:58:11.160Z,99461.16
2024-05-09T21:00:42.080Z,99445.81
2024-05-09T21:03:13.828Z,99471.28
2024-05-09T21:05:41.855Z,99462.44
2024-05-09T21:08:08.948Z,99402.97
2024-05-09T21:10:36.809Z,99472.84
2024-05-09T21:13:04.694Z,99439.53
2024-05-09T21:15:32.185Z,99447.94
2024-05-09T21:17:59.756Z,99460.53
2024-05-09T21:22:57.426Z,99472.00
2024-05-09T21:25:24.317Z,99475.22
2024-05-09T21:27:51.122Z,99438.25
2024-05-09T21:30:26.823Z,99453.47
2024-05-09T21:32:59.751Z,99462.75
2024-05-09T21:35:26.625Z,99418.09
2024-05-09T21:37:53.365Z,99452.06
2024-05-09T21:40:30.687Z,99469.72
2024-05-09T21:43:01.374Z,99445.06
2024-05-09T21:45:28.238Z,99444.31
2024-05-09T21:47:57.193Z,99467.66
2024-05-09T21:50:31.850Z,99455.06
2024-05-09T21:53:05.594Z,99400.72
2024-05-09T21:55:33.534Z,99438.25
2024-05-09T21:58:00.441Z,99434.13
2024-05-09T22:00:34.725Z,99427.13
2024-05-09T22:03:05.025Z,99458.09
2024-05-09T22:05:32.212Z,99458.69
2024-05-09T22:07:59.033Z,99463.78
2024-05-09T22:10:30.695Z,99461.19
2024-05-09T22:13:01.440Z,99441.97
2024-05-09T22:15:28.290Z,99420.03
2024-05-09T22:17:57.308Z,99433.47
2024-05-09T22:20:33.087Z,99455.59
2024-05-09T22:23:04.202Z,99442.00
2024-05-09T22:25:32.126Z,99448.94
2024-05-09T22:27:59.493Z,99444.09
2024-05-09T22:30:33.735Z,99451.66
2024-05-09T22:33:04.814Z,99438.47
2024-05-09T22:35:31.516Z,99451.72
2024-05-09T22:37:58.258Z,99435.22
2024-05-09T22:40:37.438Z,99452.56
2024-05-09T22:43:12.324Z,99407.72
2024-05-09T22:45:39.458Z,99426.38
2024-05-09T22:48:07.173Z,99451.41
2024-05-09T22:50:34.086Z,99427.63
2024-05-09T22:53:01.206Z,99449.81
2024-05-09T22:55:28.286Z,99463.63
2024-05-09T22:57:55.065Z,99466.72
2024-05-09T23:00:29.432Z,99453.94
2024-05-09T23:03:02.529Z,99478.34
2024-05-09T23:05:30.623Z,99465.75
2024-05-09T23:07:57.492Z,99460.47
2024-05-09T23:10:32.103Z,99459.44
2024-05-09T23:13:03.343Z,99473.25
2024-05-09T23:15:30.223Z,99471.22
2024-05-09T23:17:57.968Z,99471.63
2024-05-09T23:20:33.691Z,99478.94
2024-05-09T23:23:05.442Z,99475.09
2024-05-09T23:25:32.061Z,99475.09
2024-05-09T23:27:59.035Z,99470.63
2024-05-09T23:30:33.779Z,99439.16
2024-05-09T23:33:05.672Z,99461.47
2024-05-09T23:35:32.503Z,99460.50
2024-05-09T23:37:59.398Z,99442.03
2024-05-09T23:40:37.031Z,99461.75
2024-05-09T23:43:07.421Z,99473.53
2024-05-09T23:45:34.897Z,99458.91
2024-05-09T23:48:01.922Z,99474.34
2024-05-09T23:50:36.467Z,99431.88
2024-05-09T23:53:06.119Z,99474.53
2024-05-09T23:55:33.736Z,99447.31
2024-05-09T23:58:00.824Z,99430.63
